createdAt,value
2019-04-12T00:00:42.985Z,7.87
2019-04-12T00:03:11.754Z,8.20
2019-04-12T00:05:40.287Z,8.37
2019-04-12T00:08:08.880Z,7.63
2019-04-12T00:10:37.587Z,10.27
2019-04-12T00:13:06.054Z,8.57
2019-04-12T00:15:34.480Z,9.50
2019-04-12T00:18:03.182Z,9.53
2019-04-12T00:20:31.797Z,10.37
2019-04-12T00:23:00.401Z,10.83
2019-04-12T00:25:28.916Z,11.70
2019-04-12T00:27:57.567Z,11.23
2019-04-12T00:30:26.076Z,13.50
2019-04-12T00:32:54.738Z,10.13
2019-04-12T00:35:23.272Z,11.30
2019-04-12T00:37:55.366Z,10.43
2019-04-12T00:40:22.577Z,10.57
2019-04-12T00:42:51.182Z,11.10
2019-04-12T00:45:19.711Z,9.73
2019-04-12T00:50:36.565Z,14.10
2019-04-12T00:53:05.150Z,11.30
2019-04-12T00:55:33.777Z,13.00
2019-04-12T00:58:02.298Z,13.73
2019-04-12T01:00:33.253Z,17.63
2019-04-12T01:03:03.314Z,15.30
2019-04-12T01:05:33.316Z,15.30
2019-04-12T01:08:05.180Z,14.57
2019-04-12T01:10:35.288Z,15.27
2019-04-12T01:13:05.226Z,14.90
2019-04-12T01:15:34.744Z,13.10
2019-04-12T01:18:03.874Z,15.73
2019-04-12T01:20:36.307Z,15.60
2019-04-12T01:23:09.772Z,13.63
2019-04-12T01:25:36.667Z,13.87
2019-04-12T01:28:05.461Z,15.43
2019-04-12T01:30:34.112Z,14.43
2019-04-12T01:33:02.860Z,14.30
2019-04-12T01:35:31.550Z,15.10
2019-04-12T01:38:00.378Z,12.90
2019-04-12T01:40:28.985Z,18.77
2019-04-12T01:42:57.619Z,16.37
2019-04-12T01:45:26.142Z,14.70
2019-04-12T01:47:54.647Z,16.17
2019-04-12T01:50:23.178Z,16.13
2019-04-12T01:52:51.795Z,16.83
2019-04-12T01:55:20.322Z,16.47
2019-04-12T01:57:48.838Z,14.17
2019-04-12T02:00:17.461Z,14.33
2019-04-12T02:02:46.152Z,12.97
2019-04-12T02:05:15.630Z,13.33
2019-04-12T02:07:44.237Z,16.00
2019-04-12T02:10:13.134Z,13.40
2019-04-12T02:12:41.557Z,14.23
2019-04-12T02:15:10.283Z,11.40
2019-04-12T02:17:38.994Z,11.27
2019-04-12T02:20:08.911Z,11.00
2019-04-12T02:22:37.531Z,12.23
2019-04-12T02:25:06.440Z,12.30
2019-04-12T02:27:35.074Z,13.13
2019-04-12T02:30:04.704Z,13.03
2019-04-12T02:32:52.078Z,11.73
2019-04-12T02:35:55.110Z,15.07
2019-04-12T02:38:23.873Z,12.50
2019-04-12T02:40:53.487Z,14.70
2019-04-12T02:43:24.423Z,12.67
2019-04-12T02:45:55.160Z,13.63
2019-04-12T02:48:47.464Z,12.97
2019-04-12T02:51:47.604Z,14.23
2019-04-12T02:54:40.496Z,12.60
2019-04-12T02:57:26.125Z,13.10
2019-04-12T02:59:56.056Z,14.40
2019-04-12T03:02:26.323Z,10.47
2019-04-12T03:04:55.071Z,12.33
2019-04-12T03:07:23.800Z,13.30
2019-04-12T03:09:56.045Z,17.20
2019-04-12T03:12:26.961Z,13.70
2019-04-12T03:14:57.804Z,15.13
2019-04-12T03:17:26.318Z,11.77
2019-04-12T03:19:54.826Z,13.47
2019-04-12T03:22:23.653Z,15.43
2019-04-12T03:24:52.491Z,12.73
2019-04-12T03:27:21.416Z,10.67
2019-04-12T03:29:50.055Z,12.57
2019-04-12T03:32:18.665Z,13.27
2019-04-12T03:34:47.372Z,13.37
2019-04-12T03:37:16.286Z,16.60
2019-04-12T03:39:45.046Z,15.33
2019-04-12T03:42:13.660Z,14.23
2019-04-12T03:44:42.368Z,17.27
2019-04-12T03:47:11.053Z,13.43
2019-04-12T03:49:40.286Z,16.47
2019-04-12T03:52:09.569Z,13.93
2019-04-12T03:54:38.420Z,16.17
2019-04-12T03:57:07.407Z,17.13
2019-04-12T03:59:36.514Z,15.60
2019-04-12T04:02:09.869Z,16.37
2019-04-12T04:04:38.476Z,19.53
2019-04-12T04:07:07.391Z,20.00
2019-04-12T04:09:35.966Z,24.00
2019-04-12T04:12:05.042Z,19.60
2019-04-12T04:14:34.264Z,21.57
2019-04-12T04:17:21.185Z,22.33
2019-04-12T04:20:20.011Z,24.57
2019-04-12T04:22:49.000Z,20.37
2019-04-12T04:25:35.873Z,16.67
2019-04-12T04:28:26.690Z,23.40
2019-04-12T04:31:00.583Z,20.67
2019-04-12T04:33:29.493Z,21.23
2019-04-12T04:35:58.422Z,20.03
2019-04-12T04:38:27.131Z,17.67
2019-04-12T04:41:00.981Z,17.40
2019-04-12T04:43:29.952Z,19.83
2019-04-12T04:45:58.885Z,19.47
2019-04-12T04:48:27.918Z,20.10
2019-04-12T04:50:57.067Z,18.50
2019-04-12T04:53:26.262Z,19.50
2019-04-12T04:55:55.820Z,22.43
2019-04-12T04:58:24.478Z,21.60
2019-04-12T05:00:53.841Z,19.97
2019-04-12T05:03:23.643Z,26.67
2019-04-12T05:05:52.782Z,24.33
2019-04-12T05:08:21.615Z,31.43
2019-04-12T05:10:50.297Z,25.37
2019-04-12T05:13:19.750Z,27.83
2019-04-12T05:15:48.967Z,31.27
2019-04-12T05:18:17.878Z,29.57
2019-04-12T05:20:46.795Z,29.33
2019-04-12T05:23:15.703Z,28.60
2019-04-12T05:25:44.414Z,26.13
2019-04-12T05:28:13.338Z,25.83
2019-04-12T05:30:42.452Z,24.37
2019-04-12T05:33:11.568Z,28.40
2019-04-12T05:35:40.369Z,24.33
2019-04-12T05:38:09.158Z,22.70
2019-04-12T05:40:37.836Z,24.13
2019-04-12T05:43:06.544Z,29.83
2019-04-12T05:45:46.884Z,33.53
2019-04-12T05:48:33.635Z,30.93
2019-04-12T05:51:02.192Z,33.07
2019-04-12T05:53:31.909Z,25.97
2019-04-12T05:56:00.684Z,26.40
2019-04-12T05:58:56.057Z,31.23
2019-04-12T06:01:36.584Z,31.17
2019-04-12T06:04:05.487Z,33.47
2019-04-12T06:06:34.109Z,32.67
2019-04-12T06:09:03.958Z,33.57
2019-04-12T06:11:32.783Z,37.57
2019-04-12T06:14:01.833Z,36.47
2019-04-12T06:16:31.515Z,34.07
2019-04-12T06:19:02.575Z,33.77
2019-04-12T06:21:40.665Z,33.57
2019-04-12T06:24:09.319Z,30.67
2019-04-12T06:27:09.313Z,34.13
2019-04-12T06:29:30.827Z,35.80
2019-04-12T06:31:59.664Z,29.73
2019-04-12T06:34:28.110Z,42.57
2019-04-12T06:36:56.769Z,29.03
2019-04-12T06:39:25.171Z,39.03
2019-04-12T06:41:53.903Z,47.40
2019-04-12T06:44:22.641Z,53.07
2019-04-12T06:46:51.288Z,47.93
2019-04-12T06:49:19.993Z,54.47
2019-04-12T06:51:48.753Z,53.37
2019-04-12T06:54:17.278Z,33.97
2019-04-12T06:56:57.071Z,54.03
2019-04-12T06:59:25.615Z,48.33
2019-04-12T07:02:13.681Z,46.40
2019-04-12T07:04:45.606Z,41.90
2019-04-12T07:07:14.151Z,36.70
2019-04-12T07:09:42.710Z,28.83
2019-04-12T07:12:11.270Z,29.33
2019-04-12T07:14:39.777Z,32.47
2019-04-12T07:17:08.423Z,32.30
2019-04-12T07:19:36.969Z,30.07
2019-04-12T07:22:05.659Z,24.60
2019-04-12T07:24:34.336Z,25.73
2019-04-12T07:27:03.020Z,25.53
2019-04-12T07:29:31.776Z,25.43
2019-04-12T07:32:00.458Z,26.37
2019-04-12T07:34:28.922Z,21.93
2019-04-12T07:36:57.587Z,20.40
2019-04-12T07:39:26.267Z,21.57
2019-04-12T07:41:54.919Z,21.50
2019-04-12T07:44:23.564Z,20.87
2019-04-12T07:46:52.195Z,22.07
2019-04-12T07:49:20.709Z,17.33
2019-04-12T07:52:00.314Z,22.17
2019-04-12T07:54:50.811Z,20.00
2019-04-12T07:57:47.132Z,19.40
2019-04-12T08:00:34.791Z,17.60
2019-04-12T08:03:16.031Z,17.50
2019-04-12T08:05:46.958Z,11.07
2019-04-12T08:08:15.510Z,13.93
2019-04-12T08:10:44.026Z,12.03
2019-04-12T08:13:12.525Z,13.67
2019-04-12T08:15:41.134Z,10.70
2019-04-12T08:18:09.898Z,11.03
2019-04-12T08:20:38.498Z,10.70
2019-04-12T08:23:07.145Z,12.67
2019-04-12T08:25:35.668Z,14.10
2019-04-12T08:28:04.281Z,11.40
2019-04-12T08:30:32.899Z,11.50
2019-04-12T08:33:01.526Z,8.60
2019-04-12T08:35:30.058Z,8.47
2019-04-12T08:38:04.730Z,9.43
2019-04-12T08:40:29.055Z,9.63
2019-04-12T08:42:57.657Z,8.30
2019-04-12T08:45:26.112Z,6.73
2019-04-12T08:47:54.797Z,6.83
2019-04-12T08:50:23.263Z,6.50
2019-04-12T08:52:51.867Z,5.97
2019-04-12T08:55:20.429Z,8.43
2019-04-12T08:57:49.103Z,7.67
2019-04-12T09:00:17.770Z,6.00
2019-04-12T09:02:58.190Z,6.40
2019-04-12T09:05:16.993Z,7.10
2019-04-12T09:07:45.623Z,5.67
2019-04-12T09:10:14.394Z,6.27
2019-04-12T09:12:42.987Z,6.10
2019-04-12T09:15:11.808Z,9.60
2019-04-12T09:17:40.510Z,13.03
2019-04-12T09:20:25.723Z,7.43
2019-04-12T09:23:16.631Z,8.80
2019-04-12T09:25:52.268Z,10.23
2019-04-12T09:28:25.106Z,7.80
2019-04-12T09:30:51.214Z,10.47
2019-04-12T09:33:19.911Z,8.97
2019-04-12T09:35:48.467Z,9.20
2019-04-12T09:38:17.122Z,11.13
2019-04-12T09:40:45.601Z,9.90
2019-04-12T09:43:15.439Z,19.87
2019-04-12T09:45:46.837Z,14.13
2019-04-12T09:48:15.460Z,15.10
2019-04-12T09:50:43.987Z,15.47
2019-04-12T09:53:12.597Z,13.90
2019-04-12T09:55:41.266Z,16.23
2019-04-12T09:58:10.015Z,14.77
2019-04-12T10:00:38.461Z,14.27
2019-04-12T10:03:07.073Z,14.67
2019-04-12T10:05:35.619Z,18.73
2019-04-12T10:08:04.329Z,40.53
2019-04-12T10:10:32.981Z,24.40
2019-04-12T10:13:01.603Z,20.77
2019-04-12T10:15:30.231Z,41.40
2019-04-12T10:18:01.260Z,37.37
2019-04-12T10:20:29.341Z,63.60
2019-04-12T10:22:57.903Z,42.50
2019-04-12T10:25:26.549Z,28.30
2019-04-12T10:27:55.057Z,26.57
2019-04-12T10:30:24.283Z,20.90
2019-04-12T10:32:52.813Z,15.70
2019-04-12T10:35:21.943Z,12.93
2019-04-12T10:37:50.611Z,14.97
2019-04-12T10:40:19.145Z,14.33
2019-04-12T10:42:47.875Z,12.87
2019-04-12T10:45:36.167Z,12.50
2019-04-12T10:48:11.211Z,11.30
2019-04-12T10:51:11.260Z,12.17
2019-04-12T10:53:49.432Z,11.30
2019-04-12T10:56:17.942Z,21.47
2019-04-12T10:58:47.270Z,11.80
2019-04-12T11:01:16.069Z,7.20
2019-04-12T11:03:44.816Z,9.67
2019-04-12T11:06:13.409Z,8.57
2019-04-12T11:08:41.926Z,9.50
2019-04-12T11:11:10.574Z,8.10
2019-04-12T11:13:39.201Z,12.43
2019-04-12T11:16:07.887Z,26.03
2019-04-12T11:18:36.388Z,46.50
2019-04-12T11:21:04.928Z,80.53
2019-04-12T11:23:33.730Z,39.90
2019-04-12T11:26:02.837Z,22.60
2019-04-12T11:28:31.571Z,14.63
2019-04-12T11:31:00.051Z,14.87
2019-04-12T11:33:28.497Z,28.40
2019-04-12T11:35:57.049Z,20.27
2019-04-12T11:38:25.678Z,15.90
2019-04-12T11:40:54.290Z,18.77
2019-04-12T11:43:22.858Z,33.30
2019-04-12T11:45:51.681Z,58.37
2019-04-12T11:48:20.297Z,43.47
2019-04-12T11:50:48.959Z,36.23
2019-04-12T11:53:17.654Z,16.70
2019-04-12T11:55:46.298Z,25.20
2019-04-12T11:58:14.838Z,27.83
2019-04-12T12:00:50.055Z,26.50
2019-04-12T12:03:32.631Z,30.37
2019-04-12T12:06:14.455Z,39.53
2019-04-12T12:09:14.650Z,16.57
2019-04-12T12:11:47.222Z,20.10
2019-04-12T12:14:44.288Z,16.67
2019-04-12T12:17:22.259Z,21.37
2019-04-12T12:19:50.834Z,15.07
2019-04-12T12:22:19.346Z,15.10
2019-04-12T12:24:47.857Z,12.33
2019-04-12T12:27:16.489Z,10.80
2019-04-12T12:29:45.130Z,11.77
2019-04-12T12:32:13.759Z,12.10
2019-04-12T12:34:42.743Z,10.00
2019-04-12T12:37:11.751Z,8.77
2019-04-12T12:39:40.472Z,11.33
2019-04-12T12:42:09.143Z,8.33
2019-04-12T12:44:37.705Z,7.47
2019-04-12T12:47:06.366Z,8.83
2019-04-12T12:49:34.969Z,7.30
2019-04-12T12:52:03.619Z,8.00
2019-04-12T12:54:32.425Z,8.40
2019-04-12T12:57:01.582Z,7.10
2019-04-12T12:59:30.311Z,7.93
2019-04-12T13:01:58.865Z,7.33
2019-04-12T13:04:27.601Z,7.53
2019-04-12T13:06:56.452Z,4.43
2019-04-12T13:09:25.224Z,6.33
2019-04-12T13:11:53.938Z,4.27
2019-04-12T13:14:22.636Z,4.20
2019-04-12T13:16:51.263Z,6.40
2019-04-12T13:19:20.116Z,5.93
2019-04-12T13:21:48.772Z,5.57
2019-04-12T13:24:17.382Z,4.73
2019-04-12T13:26:46.094Z,7.27
2019-04-12T13:29:14.853Z,4.67
2019-04-12T13:32:00.937Z,4.83
2019-04-12T13:34:40.075Z,3.93
2019-04-12T13:37:40.450Z,3.63
2019-04-12T13:40:34.832Z,6.13
2019-04-12T13:43:08.590Z,4.83
2019-04-12T13:45:37.126Z,3.97
2019-04-12T13:48:05.731Z,3.33
2019-04-12T13:50:34.337Z,4.37
2019-04-12T13:53:03.205Z,19.97
2019-04-12T13:55:31.773Z,11.50
2019-04-12T13:58:00.722Z,14.60
2019-04-12T14:00:29.335Z,72.33
2019-04-12T14:02:58.473Z,13.07
2019-04-12T14:05:27.008Z,6.10
2019-04-12T14:07:55.968Z,10.93
2019-04-12T14:10:24.678Z,8.13
2019-04-12T14:13:02.485Z,6.03
2019-04-12T14:15:23.823Z,4.53
2019-04-12T14:17:52.534Z,4.50
2019-04-12T14:20:21.151Z,4.93
2019-04-12T14:22:49.764Z,3.83
2019-04-12T14:25:18.603Z,5.93
2019-04-12T14:27:47.316Z,21.07
2019-04-12T14:30:41.699Z,12.10
2019-04-12T14:33:28.708Z,27.47
2019-04-12T14:36:20.145Z,12.17
2019-04-12T14:38:48.775Z,11.00
2019-04-12T14:41:17.605Z,12.93
2019-04-12T14:44:08.346Z,9.40
2019-04-12T14:46:43.944Z,26.23
2019-04-12T14:49:12.336Z,33.90
2019-04-12T14:51:41.260Z,24.27
2019-04-12T14:54:09.978Z,16.20
2019-04-12T14:56:38.735Z,29.13
2019-04-12T14:59:07.641Z,35.70
2019-04-12T15:01:36.259Z,21.13
2019-04-12T15:04:05.063Z,14.30
2019-04-12T15:06:33.679Z,9.53
2019-04-12T15:09:04.261Z,12.67
2019-04-12T15:11:33.049Z,10.20
2019-04-12T15:14:01.896Z,9.20
2019-04-12T15:16:33.388Z,7.87
2019-04-12T15:19:01.102Z,5.77
2019-04-12T15:21:29.710Z,5.87
2019-04-12T15:23:58.424Z,6.20
2019-04-12T15:26:27.080Z,6.37
2019-04-12T15:28:55.789Z,8.57
2019-04-12T15:31:24.377Z,7.30
2019-04-12T15:33:53.181Z,7.73
2019-04-12T15:36:21.895Z,6.77
2019-04-12T15:38:50.525Z,10.00
2019-04-12T15:41:19.366Z,5.37
2019-04-12T15:43:48.076Z,5.83
2019-04-12T15:46:16.715Z,5.60
2019-04-12T15:48:45.418Z,4.33
2019-04-12T15:51:14.240Z,8.37
2019-04-12T15:53:42.877Z,6.13
2019-04-12T15:56:11.559Z,7.07
2019-04-12T15:58:40.205Z,5.23
2019-04-12T16:01:16.298Z,8.97
2019-04-12T16:03:45.306Z,6.13
2019-04-12T16:06:14.320Z,6.17
2019-04-12T16:08:50.901Z,5.67
2019-04-12T16:11:23.093Z,7.50
2019-04-12T16:14:19.215Z,17.73
2019-04-12T16:17:24.061Z,16.93
2019-04-12T16:19:53.617Z,35.60
2019-04-12T16:22:22.432Z,13.37
2019-04-12T16:24:50.843Z,8.33
2019-04-12T16:27:19.472Z,9.40
2019-04-12T16:30:07.058Z,9.07
2019-04-12T16:32:55.202Z,8.83
2019-04-12T16:35:32.992Z,8.93
2019-04-12T16:38:06.826Z,6.87
2019-04-12T16:40:35.541Z,11.50
2019-04-12T16:43:04.383Z,9.97
2019-04-12T16:45:32.978Z,7.50
2019-04-12T16:48:01.591Z,7.90
2019-04-12T16:50:30.151Z,19.83
2019-04-12T16:52:58.782Z,19.80
2019-04-12T16:55:27.386Z,9.83
2019-04-12T16:57:56.095Z,8.97
2019-04-12T17:00:38.031Z,7.47
2019-04-12T17:03:06.851Z,7.77
2019-04-12T17:05:36.265Z,12.33
2019-04-12T17:08:05.823Z,10.47
2019-04-12T17:10:34.582Z,10.47
2019-04-12T17:13:04.083Z,10.00
2019-04-12T17:15:33.300Z,9.00
2019-04-12T17:18:02.091Z,7.70
2019-04-12T17:20:30.947Z,9.97
2019-04-12T17:22:59.661Z,8.47
2019-04-12T17:25:28.424Z,7.43
2019-04-12T17:27:57.226Z,10.47
2019-04-12T17:30:26.047Z,7.77
2019-04-12T17:32:54.691Z,12.23
2019-04-12T17:35:23.122Z,8.23
2019-04-12T17:37:51.765Z,8.50
2019-04-12T17:40:20.306Z,8.63
2019-04-12T17:42:48.975Z,8.57
2019-04-12T17:45:17.599Z,7.50
2019-04-12T17:47:46.115Z,7.23
2019-04-12T17:50:35.030Z,8.43
2019-04-12T17:53:22.371Z,6.93
2019-04-12T17:55:53.707Z,7.13
2019-04-12T17:58:22.546Z,6.90
2019-04-12T18:00:59.905Z,8.47
2019-04-12T18:03:28.463Z,7.07
2019-04-12T18:05:57.054Z,5.03
2019-04-12T18:08:25.773Z,7.17
2019-04-12T18:10:54.379Z,6.37
2019-04-12T18:13:22.990Z,6.77
2019-04-12T18:15:51.777Z,5.00
2019-04-12T18:18:20.516Z,8.17
2019-04-12T18:20:49.391Z,7.17
2019-04-12T18:23:17.926Z,6.47
2019-04-12T18:25:46.751Z,21.80
2019-04-12T18:28:15.370Z,8.53
2019-04-12T18:30:43.916Z,10.33
2019-04-12T18:33:12.496Z,7.70
2019-04-12T18:35:41.836Z,5.37
2019-04-12T18:38:10.477Z,4.87
2019-04-12T18:40:39.249Z,5.13
2019-04-12T18:43:08.172Z,4.90
2019-04-12T18:45:36.776Z,5.43
2019-04-12T18:48:05.292Z,5.67
2019-04-12T18:50:33.909Z,3.87
2019-04-12T18:53:02.723Z,3.97
2019-04-12T18:55:31.537Z,4.67
2019-04-12T18:58:00.171Z,4.40
2019-04-12T19:00:28.985Z,4.80
2019-04-12T19:02:57.698Z,3.97
2019-04-12T19:05:26.318Z,4.93
2019-04-12T19:07:54.940Z,5.13
2019-04-12T19:10:23.531Z,6.00
2019-04-12T19:12:52.240Z,5.87
2019-04-12T19:15:23.502Z,4.97
2019-04-12T19:17:52.132Z,5.67
2019-04-12T19:20:23.400Z,4.57
2019-04-12T19:22:52.519Z,3.57
2019-04-12T19:25:20.988Z,3.40
2019-04-12T19:27:49.600Z,3.73
2019-04-12T19:30:27.584Z,5.43
2019-04-12T19:33:21.616Z,4.03
2019-04-12T19:36:09.431Z,3.13
2019-04-12T19:39:00.312Z,5.13
2019-04-12T19:41:29.599Z,4.27
2019-04-12T19:43:58.184Z,4.77
2019-04-12T19:46:26.906Z,5.63
2019-04-12T19:48:55.531Z,4.87
2019-04-12T19:51:24.134Z,5.83
2019-04-12T19:53:52.754Z,9.30
2019-04-12T19:56:21.379Z,9.63
2019-04-12T19:58:49.975Z,8.17
2019-04-12T20:01:20.965Z,5.87
2019-04-12T20:03:49.789Z,9.13
2019-04-12T20:06:18.446Z,6.47
2019-04-12T20:08:47.057Z,7.87
2019-04-12T20:11:15.597Z,10.87
2019-04-12T20:13:44.207Z,7.33
2019-04-12T20:16:12.725Z,6.40
2019-04-12T20:18:41.152Z,6.93
2019-04-12T20:21:09.772Z,6.47
2019-04-12T20:23:38.496Z,3.33
2019-04-12T20:26:07.209Z,3.50
2019-04-12T20:28:35.844Z,4.70
2019-04-12T20:31:04.477Z,5.20
2019-04-12T20:33:33.107Z,6.07
2019-04-12T20:36:01.608Z,7.47
2019-04-12T20:38:30.116Z,8.33
2019-04-12T20:40:58.641Z,12.60
2019-04-12T20:43:27.152Z,12.33
2019-04-12T20:45:55.801Z,15.63
2019-04-12T20:48:24.298Z,17.47
2019-04-12T20:50:52.836Z,16.03
2019-04-12T20:53:21.357Z,19.57
2019-04-12T20:55:50.099Z,22.23
2019-04-12T20:58:18.868Z,23.50
2019-04-12T21:00:47.704Z,25.03
2019-04-12T21:03:16.880Z,25.00
2019-04-12T21:05:45.533Z,25.57
2019-04-12T21:08:14.244Z,27.73
2019-04-12T21:10:42.630Z,27.20
2019-04-12T21:13:11.349Z,28.37
2019-04-12T21:15:39.896Z,28.23
2019-04-12T21:18:08.521Z,32.50
2019-04-12T21:20:37.062Z,28.33
2019-04-12T21:23:05.832Z,32.70
2019-04-12T21:25:35.161Z,26.73
2019-04-12T21:28:04.463Z,30.03
2019-04-12T21:30:33.782Z,30.47
2019-04-12T21:33:03.213Z,28.37
2019-04-12T21:35:32.562Z,29.73
2019-04-12T21:38:01.883Z,25.77
2019-04-12T21:40:31.219Z,30.37
2019-04-12T21:43:00.588Z,30.17
2019-04-12T21:45:29.908Z,29.83
2019-04-12T21:47:59.245Z,27.87
2019-04-12T21:50:28.580Z,29.97
2019-04-12T21:52:57.885Z,32.67
2019-04-12T21:55:27.260Z,28.67
2019-04-12T21:57:56.643Z,28.70
2019-04-12T22:00:48.508Z,28.63
2019-04-12T22:03:18.464Z,26.83
2019-04-12T22:05:47.791Z,26.67
2019-04-12T22:08:17.212Z,29.00
2019-04-12T22:10:46.572Z,25.70
2019-04-12T22:13:15.898Z,29.83
2019-04-12T22:15:45.222Z,32.90
2019-04-12T22:18:14.460Z,25.17
2019-04-12T22:20:43.060Z,25.67
2019-04-12T22:23:11.682Z,26.93
2019-04-12T22:25:40.244Z,24.30
2019-04-12T22:28:08.973Z,22.20
2019-04-12T22:30:37.566Z,21.50
2019-04-12T22:33:06.082Z,20.30
2019-04-12T22:35:34.721Z,19.07
2019-04-12T22:38:03.765Z,17.93
2019-04-12T22:40:32.513Z,17.33
2019-04-12T22:43:01.265Z,15.93
2019-04-12T22:45:29.905Z,13.50
2019-04-12T22:47:58.391Z,12.53
2019-04-12T22:50:27.021Z,13.20
2019-04-12T22:52:55.432Z,12.33
2019-04-12T22:55:24.907Z,12.13
2019-04-12T22:57:53.536Z,10.37
2019-04-12T23:00:22.236Z,9.77
2019-04-12T23:02:51.061Z,10.30
2019-04-12T23:05:19.573Z,10.83
2019-04-12T23:07:48.151Z,9.87
2019-04-12T23:10:16.579Z,12.00
2019-04-12T23:12:45.191Z,10.50
2019-04-12T23:15:16.617Z,10.37
2019-04-12T23:17:45.213Z,11.53
2019-04-12T23:20:13.637Z,9.57
2019-04-12T23:22:42.216Z,11.83
2019-04-12T23:25:10.926Z,9.23
2019-04-12T23:27:39.444Z,9.73
2019-04-12T23:30:11.379Z,10.20
2019-04-12T23:32:40.002Z,9.03
2019-04-12T23:35:29.814Z,8.33
2019-04-12T23:37:58.312Z,9.93
2019-04-12T23:40:26.935Z,8.53
2019-04-12T23:42:55.471Z,10.23
2019-04-12T23:45:25.058Z,10.23
2019-04-12T23:47:53.669Z,12.27
2019-04-12T23:50:22.366Z,10.57
2019-04-12T23:52:50.966Z,11.73
2019-04-12T23:55:19.577Z,11.30
2019-04-12T23:57:50.382Z,12.27
